sensor_id;sensor_type;location;lat;lon;timestamp;P1;durP1;ratioP1;P2;durP2;ratioP2
45694;SDS011;31408;45.468;9.124;2024-03-08T00:00:07;27.25;;;9.15;;
45694;SDS011;31408;45.468;9.124;2024-03-08T00:02:38;17.95;;;9.45;;
45694;SDS011;31408;45.468;9.124;2024-03-08T00:05:04;21.67;;;8.88;;
45694;SDS011;31408;45.468;9.124;2024-03-08T00:07:29;17.63;;;8.35;;
45694;SDS011;31408;45.468;9.124;2024-03-08T00:09:55;21.30;;;9.68;;
45694;SDS011;31408;45.468;9.124;2024-03-08T00:12:20;23.27;;;9.57;;
45694;SDS011;31408;45.468;9.124;2024-03-08T00:14:45;19.52;;;9.55;;
45694;SDS011;31408;45.468;9.124;2024-03-08T00:17:11;20.60;;;9.95;;
45694;SDS011;31408;45.468;9.124;2024-03-08T00:19:36;19.75;;;9.15;;
45694;SDS011;31408;45.468;9.124;2024-03-08T00:22:02;18.08;;;9.68;;
45694;SDS011;31408;45.468;9.124;2024-03-08T00:24:27;23.13;;;10.48;;
45694;SDS011;31408;45.468;9.124;2024-03-08T00:26:54;18.73;;;10.15;;
45694;SDS011;31408;45.468;9.124;2024-03-08T00:29:19;26.13;;;10.40;;
45694;SDS011;31408;45.468;9.124;2024-03-08T00:31:45;16.92;;;8.25;;
45694;SDS011;31408;45.468;9.124;2024-03-08T00:34:10;18.67;;;9.07;;
45694;SDS011;31408;45.468;9.124;2024-03-08T00:36:37;18.40;;;9.80;;
45694;SDS011;31408;45.468;9.124;2024-03-08T00:39:02;21.40;;;10.30;;
45694;SDS011;31408;45.468;9.124;2024-03-08T00:41:31;20.40;;;10.15;;
45694;SDS011;31408;45.468;9.124;2024-03-08T00:43:57;15.52;;;8.02;;
45694;SDS011;31408;45.468;9.124;2024-03-08T00:46:22;18.35;;;9.07;;
45694;SDS011;31408;45.468;9.124;2024-03-08T00:48:47;25.38;;;9.85;;
45694;SDS011;31408;45.468;9.124;2024-03-08T00:51:13;19.48;;;9.05;;
45694;SDS011;31408;45.468;9.124;2024-03-08T00:53:40;21.70;;;10.20;;
45694;SDS011;31408;45.468;9.124;2024-03-08T00:56:05;20.42;;;11.05;;
45694;SDS011;31408;45.468;9.124;2024-03-08T00:58:30;23.02;;;10.57;;
45694;SDS011;31408;45.468;9.124;2024-03-08T01:00:56;22.67;;;9.63;;
45694;SDS011;31408;45.468;9.124;2024-03-08T01:03:22;19.85;;;9.95;;
45694;SDS011;31408;45.468;9.124;2024-03-08T01:05:47;21.83;;;11.20;;
45694;SDS011;31408;45.468;9.124;2024-03-08T01:08:13;21.95;;;11.43;;
45694;SDS011;31408;45.468;9.124;2024-03-08T01:10:38;21.60;;;10.68;;
45694;SDS011;31408;45.468;9.124;2024-03-08T01:13:04;23.80;;;12.13;;
45694;SDS011;31408;45.468;9.124;2024-03-08T01:15:30;23.00;;;11.63;;
45694;SDS011;31408;45.468;9.124;2024-03-08T01:17:55;22.45;;;12.75;;
45694;SDS011;31408;45.468;9.124;2024-03-08T01:20:20;23.38;;;10.75;;
45694;SDS011;31408;45.468;9.124;2024-03-08T01:22:46;20.70;;;10.50;;
45694;SDS011;31408;45.468;9.124;2024-03-08T01:25:11;23.73;;;11.73;;
45694;SDS011;31408;45.468;9.124;2024-03-08T01:27:36;20.42;;;9.45;;
45694;SDS011;31408;45.468;9.124;2024-03-08T01:30:02;18.08;;;9.05;;
45694;SDS011;31408;45.468;9.124;2024-03-08T01:32:29;20.58;;;9.52;;
45694;SDS011;31408;45.468;9.124;2024-03-08T01:34:54;17.40;;;8.07;;
45694;SDS011;31408;45.468;9.124;2024-03-08T01:37:19;19.88;;;8.98;;
45694;SDS011;31408;45.468;9.124;2024-03-08T01:39:45;20.42;;;8.50;;
45694;SDS011;31408;45.468;9.124;2024-03-08T01:42:10;17.15;;;8.82;;
45694;SDS011;31408;45.468;9.124;2024-03-08T01:44:38;17.98;;;8.98;;
45694;SDS011;31408;45.468;9.124;2024-03-08T01:47:03;20.38;;;8.63;;
45694;SDS011;31408;45.468;9.124;2024-03-08T01:49:28;21.60;;;8.88;;
45694;SDS011;31408;45.468;9.124;2024-03-08T01:51:54;16.88;;;9.07;;
45694;SDS011;31408;45.468;9.124;2024-03-08T01:54:21;16.35;;;8.27;;
45694;SDS011;31408;45.468;9.124;2024-03-08T01:56:47;23.40;;;8.88;;
45694;SDS011;31408;45.468;9.124;2024-03-08T01:59:12;20.83;;;8.88;;
45694;SDS011;31408;45.468;9.124;2024-03-08T02:01:39;21.60;;;8.48;;
45694;SDS011;31408;45.468;9.124;2024-03-08T02:04:05;17.55;;;7.93;;
45694;SDS011;31408;45.468;9.124;2024-03-08T02:06:32;17.05;;;9.30;;
45694;SDS011;31408;45.468;9.124;2024-03-08T02:08:57;16.05;;;7.90;;
45694;SDS011;31408;45.468;9.124;2024-03-08T02:11:23;16.63;;;8.50;;
45694;SDS011;31408;45.468;9.124;2024-03-08T02:13:48;19.17;;;9.65;;
45694;SDS011;31408;45.468;9.124;2024-03-08T02:16:19;18.85;;;8.63;;
45694;SDS011;31408;45.468;9.124;2024-03-08T02:18:45;18.27;;;8.65;;
45694;SDS011;31408;45.468;9.124;2024-03-08T02:21:10;19.70;;;9.43;;
45694;SDS011;31408;45.468;9.124;2024-03-08T02:23:35;17.90;;;10.15;;
45694;SDS011;31408;45.468;9.124;2024-03-08T02:26:02;20.65;;;9.65;;
45694;SDS011;31408;45.468;9.124;2024-03-08T02:28:29;22.58;;;10.55;;
45694;SDS011;31408;45.468;9.124;2024-03-08T02:30:55;17.83;;;8.82;;
45694;SDS011;31408;45.468;9.124;2024-03-08T02:33:20;16.60;;;8.65;;
45694;SDS011;31408;45.468;9.124;2024-03-08T02:35:47;24.13;;;10.68;;
45694;SDS011;31408;45.468;9.124;2024-03-08T02:38:13;21.98;;;10.60;;
45694;SDS011;31408;45.468;9.124;2024-03-08T02:40:41;24.23;;;11.75;;
45694;SDS011;31408;45.468;9.124;2024-03-08T02:43:07;24.17;;;10.57;;
45694;SDS011;31408;45.468;9.124;2024-03-08T02:45:32;20.40;;;10.23;;
45694;SDS011;31408;45.468;9.124;2024-03-08T02:47:57;20.00;;;8.63;;
45694;SDS011;31408;45.468;9.124;2024-03-08T02:50:22;23.15;;;12.02;;
45694;SDS011;31408;45.468;9.124;2024-03-08T02:52:48;22.40;;;9.75;;
45694;SDS011;31408;45.468;9.124;2024-03-08T02:55:13;21.17;;;9.80;;
45694;SDS011;31408;45.468;9.124;2024-03-08T02:57:42;24.70;;;10.02;;
45694;SDS011;31408;45.468;9.124;2024-03-08T03:00:09;25.48;;;10.30;;
45694;SDS011;31408;45.468;9.124;2024-03-08T03:02:34;22.40;;;10.63;;
45694;SDS011;31408;45.468;9.124;2024-03-08T03:04:59;20.52;;;9.18;;
45694;SDS011;31408;45.468;9.124;2024-03-08T03:07:29;24.10;;;11.32;;
45694;SDS011;31408;45.468;9.124;2024-03-08T03:09:55;23.58;;;10.82;;
45694;SDS011;31408;45.468;9.124;2024-03-08T03:12:20;21.58;;;9.85;;
45694;SDS011;31408;45.468;9.124;2024-03-08T03:14:45;21.83;;;11.15;;
45694;SDS011;31408;45.468;9.124;2024-03-08T03:17:11;25.40;;;11.57;;
45694;SDS011;31408;45.468;9.124;2024-03-08T03:19:36;20.58;;;10.20;;
45694;SDS011;31408;45.468;9.124;2024-03-08T03:22:01;23.45;;;10.57;;
45694;SDS011;31408;45.468;9.124;2024-03-08T03:24:27;21.90;;;10.75;;
45694;SDS011;31408;45.468;9.124;2024-03-08T03:26:54;24.45;;;11.93;;
45694;SDS011;31408;45.468;9.124;2024-03-08T03:29:20;20.67;;;10.30;;
45694;SDS011;31408;45.468;9.124;2024-03-08T03:31:55;26.20;;;11.88;;
45694;SDS011;31408;45.468;9.124;2024-03-08T03:34:20;24.35;;;10.32;;
45694;SDS011;31408;45.468;9.124;2024-03-08T03:36:46;25.40;;;13.20;;
45694;SDS011;31408;45.468;9.124;2024-03-08T03:39:12;21.75;;;10.60;;
45694;SDS011;31408;45.468;9.124;2024-03-08T03:41:45;27.10;;;12.38;;
45694;SDS011;31408;45.468;9.124;2024-03-08T03:44:11;25.52;;;12.13;;
45694;SDS011;31408;45.468;9.124;2024-03-08T03:46:36;24.92;;;11.35;;
45694;SDS011;31408;45.468;9.124;2024-03-08T03:49:01;24.67;;;11.65;;
45694;SDS011;31408;45.468;9.124;2024-03-08T03:51:28;29.55;;;13.02;;
45694;SDS011;31408;45.468;9.124;2024-03-08T03:53:54;27.25;;;12.45;;
45694;SDS011;31408;45.468;9.124;2024-03-08T03:56:24;30.23;;;13.55;;
45694;SDS011;31408;45.468;9.124;2024-03-08T03:58:50;24.15;;;10.93;;
45694;SDS011;31408;45.468;9.124;2024-03-08T04:01:16;25.55;;;12.32;;
45694;SDS011;31408;45.468;9.124;2024-03-08T04:03:41;25.55;;;12.18;;
45694;SDS011;31408;45.468;9.124;2024-03-08T04:06:08;25.90;;;11.68;;
45694;SDS011;31408;45.468;9.124;2024-03-08T04:08:33;26.15;;;12.35;;
45694;SDS011;31408;45.468;9.124;2024-03-08T04:10:59;29.67;;;13.05;;
45694;SDS011;31408;45.468;9.124;2024-03-08T04:13:25;27.02;;;12.82;;
45694;SDS011;31408;45.468;9.124;2024-03-08T04:15:51;30.20;;;12.93;;
45694;SDS011;31408;45.468;9.124;2024-03-08T04:18:16;25.42;;;12.73;;
45694;SDS011;31408;45.468;9.124;2024-03-08T04:20:43;28.40;;;12.93;;
45694;SDS011;31408;45.468;9.124;2024-03-08T04:23:08;30.48;;;13.50;;
45694;SDS011;31408;45.468;9.124;2024-03-08T04:25:33;23.27;;;11.50;;
45694;SDS011;31408;45.468;9.124;2024-03-08T04:27:59;27.08;;;12.55;;
45694;SDS011;31408;45.468;9.124;2024-03-08T04:30:24;27.77;;;12.88;;
45694;SDS011;31408;45.468;9.124;2024-03-08T04:32:49;27.60;;;12.68;;
45694;SDS011;31408;45.468;9.124;2024-03-08T04:35:15;26.17;;;12.40;;
45694;SDS011;31408;45.468;9.124;2024-03-08T04:37:40;25.15;;;12.10;;
45694;SDS011;31408;45.468;9.124;2024-03-08T04:40:06;27.20;;;12.98;;
45694;SDS011;31408;45.468;9.124;2024-03-08T04:42:31;27.58;;;12.43;;
45694;SDS011;31408;45.468;9.124;2024-03-08T04:44:58;29.80;;;14.50;;
45694;SDS011;31408;45.468;9.124;2024-03-08T04:47:23;31.20;;;15.73;;
45694;SDS011;31408;45.468;9.124;2024-03-08T04:49:49;22.50;;;11.25;;
45694;SDS011;31408;45.468;9.124;2024-03-08T04:52:15;29.13;;;12.75;;
45694;SDS011;31408;45.468;9.124;2024-03-08T04:54:41;23.08;;;11.30;;
45694;SDS011;31408;45.468;9.124;2024-03-08T04:57:07;24.90;;;12.60;;
45694;SDS011;31408;45.468;9.124;2024-03-08T04:59:32;22.50;;;13.02;;
45694;SDS011;31408;45.468;9.124;2024-03-08T05:01:58;25.42;;;12.65;;
45694;SDS011;31408;45.468;9.124;2024-03-08T05:04:23;26.50;;;13.73;;
45694;SDS011;31408;45.468;9.124;2024-03-08T05:06:48;27.05;;;13.57;;
45694;SDS011;31408;45.468;9.124;2024-03-08T05:09:14;28.58;;;13.98;;
45694;SDS011;31408;45.468;9.124;2024-03-08T05:11:43;22.25;;;12.13;;
45694;SDS011;31408;45.468;9.124;2024-03-08T05:14:12;27.23;;;12.70;;
45694;SDS011;31408;45.468;9.124;2024-03-08T05:19:14;23.13;;;11.07;;
45694;SDS011;31408;45.468;9.124;2024-03-08T05:21:42;25.85;;;13.68;;
45694;SDS011;31408;45.468;9.124;2024-03-08T05:24:07;25.27;;;12.30;;
45694;SDS011;31408;45.468;9.124;2024-03-08T05:26:35;23.65;;;11.02;;
45694;SDS011;31408;45.468;9.124;2024-03-08T05:29:00;28.15;;;13.35;;
45694;SDS011;31408;45.468;9.124;2024-03-08T05:31:25;21.40;;;10.75;;
45694;SDS011;31408;45.468;9.124;2024-03-08T05:33:51;28.45;;;11.93;;
45694;SDS011;31408;45.468;9.124;2024-03-08T05:36:16;21.75;;;10.68;;
45694;SDS011;31408;45.468;9.124;2024-03-08T05:38:45;23.83;;;11.70;;
45694;SDS011;31408;45.468;9.124;2024-03-08T05:41:10;23.45;;;10.13;;
45694;SDS011;31408;45.468;9.124;2024-03-08T05:43:37;22.67;;;11.57;;
45694;SDS011;31408;45.468;9.124;2024-03-08T05:46:02;22.27;;;9.77;;
45694;SDS011;31408;45.468;9.124;2024-03-08T05:48:29;20.25;;;10.35;;
45694;SDS011;31408;45.468;9.124;2024-03-08T05:50:56;22.10;;;10.38;;
45694;SDS011;31408;45.468;9.124;2024-03-08T05:53:22;21.88;;;10.32;;
45694;SDS011;31408;45.468;9.124;2024-03-08T05:55:47;18.88;;;8.80;;
45694;SDS011;31408;45.468;9.124;2024-03-08T05:58:12;21.00;;;10.93;;
45694;SDS011;31408;45.468;9.124;2024-03-08T06:00:37;20.63;;;9.40;;
45694;SDS011;31408;45.468;9.124;2024-03-08T06:03:03;20.20;;;10.73;;
45694;SDS011;31408;45.468;9.124;2024-03-08T06:05:28;19.00;;;8.80;;
45694;SDS011;31408;45.468;9.124;2024-03-08T06:07:53;21.58;;;10.50;;
45694;SDS011;31408;45.468;9.124;2024-03-08T06:10:19;20.77;;;9.95;;
45694;SDS011;31408;45.468;9.124;2024-03-08T06:12:44;21.52;;;9.20;;
45694;SDS011;31408;45.468;9.124;2024-03-08T06:15:10;20.95;;;10.82;;
45694;SDS011;31408;45.468;9.124;2024-03-08T06:17:39;18.10;;;9.32;;
45694;SDS011;31408;45.468;9.124;2024-03-08T06:20:04;21.38;;;9.80;;
45694;SDS011;31408;45.468;9.124;2024-03-08T06:22:36;20.40;;;10.13;;
45694;SDS011;31408;45.468;9.124;2024-03-08T06:25:01;19.73;;;9.43;;
45694;SDS011;31408;45.468;9.124;2024-03-08T06:27:27;20.25;;;9.35;;
45694;SDS011;31408;45.468;9.124;2024-03-08T06:29:52;23.83;;;11.68;;
45694;SDS011;31408;45.468;9.124;2024-03-08T06:32:17;17.05;;;8.90;;
45694;SDS011;31408;45.468;9.124;2024-03-08T06:34:44;19.73;;;9.13;;
45694;SDS011;31408;45.468;9.124;2024-03-08T06:37:09;16.98;;;8.85;;
45694;SDS011;31408;45.468;9.124;2024-03-08T06:39:34;17.27;;;8.70;;
45694;SDS011;31408;45.468;9.124;2024-03-08T06:42:01;20.10;;;10.40;;
45694;SDS011;31408;45.468;9.124;2024-03-08T06:44:26;16.67;;;8.80;;
45694;SDS011;31408;45.468;9.124;2024-03-08T06:46:58;16.85;;;7.97;;
45694;SDS011;31408;45.468;9.124;2024-03-08T06:49:23;21.45;;;8.95;;
45694;SDS011;31408;45.468;9.124;2024-03-08T06:51:49;20.95;;;10.98;;
45694;SDS011;31408;45.468;9.124;2024-03-08T06:54:14;21.65;;;9.88;;
45694;SDS011;31408;45.468;9.124;2024-03-08T06:56:39;21.17;;;9.35;;
45694;SDS011;31408;45.468;9.124;2024-03-08T06:59:05;17.98;;;7.63;;
45694;SDS011;31408;45.468;9.124;2024-03-08T07:01:31;16.83;;;8.70;;
45694;SDS011;31408;45.468;9.124;2024-03-08T07:03:57;18.35;;;8.27;;
45694;SDS011;31408;45.468;9.124;2024-03-08T07:06:22;18.88;;;7.60;;
45694;SDS011;31408;45.468;9.124;2024-03-08T07:08:48;19.77;;;9.38;;
45694;SDS011;31408;45.468;9.124;2024-03-08T07:11:14;18.15;;;8.20;;
45694;SDS011;31408;45.468;9.124;2024-03-08T07:13:43;21.30;;;8.02;;
45694;SDS011;31408;45.468;9.124;2024-03-08T07:16:08;16.83;;;8.70;;
45694;SDS011;31408;45.468;9.124;2024-03-08T07:18:33;17.73;;;8.60;;
45694;SDS011;31408;45.468;9.124;2024-03-08T07:21:01;20.45;;;8.38;;
45694;SDS011;31408;45.468;9.124;2024-03-08T07:23:27;19.88;;;9.13;;
45694;SDS011;31408;45.468;9.124;2024-03-08T07:26:11;22.80;;;8.77;;
45694;SDS011;31408;45.468;9.124;2024-03-08T07:28:36;17.50;;;8.20;;
45694;SDS011;31408;45.468;9.124;2024-03-08T07:31:02;16.50;;;8.20;;
45694;SDS011;31408;45.468;9.124;2024-03-08T07:33:42;15.90;;;6.65;;
45694;SDS011;31408;45.468;9.124;2024-03-08T07:36:07;19.48;;;8.23;;
45694;SDS011;31408;45.468;9.124;2024-03-08T07:38:33;17.48;;;7.78;;
45694;SDS011;31408;45.468;9.124;2024-03-08T07:40:58;16.00;;;8.15;;
45694;SDS011;31408;45.468;9.124;2024-03-08T07:43:24;15.90;;;7.70;;
45694;SDS011;31408;45.468;9.124;2024-03-08T07:45:50;19.75;;;8.52;;
45694;SDS011;31408;45.468;9.124;2024-03-08T07:48:18;16.92;;;7.20;;
45694;SDS011;31408;45.468;9.124;2024-03-08T07:50:43;15.60;;;6.65;;
45694;SDS011;31408;45.468;9.124;2024-03-08T07:53:08;13.00;;;6.75;;
45694;SDS011;31408;45.468;9.124;2024-03-08T07:55:37;19.27;;;8.15;;
45694;SDS011;31408;45.468;9.124;2024-03-08T07:58:02;14.27;;;6.80;;
45694;SDS011;31408;45.468;9.124;2024-03-08T08:00:28;15.68;;;8.30;;
45694;SDS011;31408;45.468;9.124;2024-03-08T08:02:55;16.80;;;7.30;;
45694;SDS011;31408;45.468;9.124;2024-03-08T08:05:21;15.88;;;6.78;;
45694;SDS011;31408;45.468;9.124;2024-03-08T08:07:46;16.17;;;7.38;;
45694;SDS011;31408;45.468;9.124;2024-03-08T08:10:15;19.52;;;8.13;;
45694;SDS011;31408;45.468;9.124;2024-03-08T08:12:47;15.13;;;7.13;;
45694;SDS011;31408;45.468;9.124;2024-03-08T08:15:12;17.30;;;7.85;;
45694;SDS011;31408;45.468;9.124;2024-03-08T08:17:38;14.07;;;7.38;;
45694;SDS011;31408;45.468;9.124;2024-03-08T08:20:04;14.02;;;6.50;;
45694;SDS011;31408;45.468;9.124;2024-03-08T08:22:30;16.52;;;8.15;;
45694;SDS011;31408;45.468;9.124;2024-03-08T08:24:56;15.88;;;8.27;;
45694;SDS011;31408;45.468;9.124;2024-03-08T08:27:21;15.93;;;7.10;;
45694;SDS011;31408;45.468;9.124;2024-03-08T08:29:46;16.38;;;7.47;;
45694;SDS011;31408;45.468;9.124;2024-03-08T08:32:16;17.27;;;7.50;;
45694;SDS011;31408;45.468;9.124;2024-03-08T08:34:43;17.70;;;8.20;;
45694;SDS011;31408;45.468;9.124;2024-03-08T08:37:08;16.38;;;8.05;;
45694;SDS011;31408;45.468;9.124;2024-03-08T08:39:35;15.30;;;6.65;;
45694;SDS011;31408;45.468;9.124;2024-03-08T08:42:00;15.07;;;7.90;;
45694;SDS011;31408;45.468;9.124;2024-03-08T08:44:25;17.38;;;7.72;;
45694;SDS011;31408;45.468;9.124;2024-03-08T08:46:50;18.50;;;9.32;;
45694;SDS011;31408;45.468;9.124;2024-03-08T08:49:16;16.27;;;8.18;;
45694;SDS011;31408;45.468;9.124;2024-03-08T08:51:49;18.95;;;8.13;;
45694;SDS011;31408;45.468;9.124;2024-03-08T08:54:14;19.23;;;8.60;;
45694;SDS011;31408;45.468;9.124;2024-03-08T08:56:42;16.13;;;7.30;;
45694;SDS011;31408;45.468;9.124;2024-03-08T08:59:09;14.88;;;7.93;;
45694;SDS011;31408;45.468;9.124;2024-03-08T09:01:34;20.33;;;8.90;;
45694;SDS011;31408;45.468;9.124;2024-03-08T09:03:59;17.35;;;7.57;;
45694;SDS011;31408;45.468;9.124;2024-03-08T09:06:24;18.20;;;8.77;;
45694;SDS011;31408;45.468;9.124;2024-03-08T09:08:50;19.65;;;9.05;;
45694;SDS011;31408;45.468;9.124;2024-03-08T09:11:16;13.73;;;7.40;;
45694;SDS011;31408;45.468;9.124;2024-03-08T09:13:43;17.90;;;7.20;;
45694;SDS011;31408;45.468;9.124;2024-03-08T09:16:09;13.50;;;6.97;;
45694;SDS011;31408;45.468;9.124;2024-03-08T09:18:36;15.25;;;7.70;;
45694;SDS011;31408;45.468;9.124;2024-03-08T09:21:01;20.60;;;10.63;;
45694;SDS011;31408;45.468;9.124;2024-03-08T09:23:26;15.68;;;8.07;;
45694;SDS011;31408;45.468;9.124;2024-03-08T09:25:58;16.52;;;7.47;;
45694;SDS011;31408;45.468;9.124;2024-03-08T09:28:24;17.33;;;7.10;;
45694;SDS011;31408;45.468;9.124;2024-03-08T09:30:50;16.88;;;7.97;;
45694;SDS011;31408;45.468;9.124;2024-03-08T09:33:15;16.85;;;8.00;;
45694;SDS011;31408;45.468;9.124;2024-03-08T09:35:44;15.50;;;8.10;;
45694;SDS011;31408;45.468;9.124;2024-03-08T09:38:12;20.50;;;8.52;;
45694;SDS011;31408;45.468;9.124;2024-03-08T09:40:38;22.80;;;8.18;;
45694;SDS011;31408;45.468;9.124;2024-03-08T09:43:03;18.65;;;8.13;;
45694;SDS011;31408;45.468;9.124;2024-03-08T09:45:29;19.42;;;8.48;;
45694;SDS011;31408;45.468;9.124;2024-03-08T09:47:56;20.40;;;9.48;;
45694;SDS011;31408;45.468;9.124;2024-03-08T09:50:22;16.80;;;7.53;;
45694;SDS011;31408;45.468;9.124;2024-03-08T09:52:48;18.50;;;8.55;;
45694;SDS011;31408;45.468;9.124;2024-03-08T09:55:14;16.85;;;8.23;;
45694;SDS011;31408;45.468;9.124;2024-03-08T09:57:42;19.40;;;8.35;;
45694;SDS011;31408;45.468;9.124;2024-03-08T10:00:28;21.05;;;8.52;;
45694;SDS011;31408;45.468;9.124;2024-03-08T10:02:53;19.08;;;8.90;;
45694;SDS011;31408;45.468;9.124;2024-03-08T10:05:19;19.98;;;8.32;;
45694;SDS011;31408;45.468;9.124;2024-03-08T10:07:44;19.52;;;9.00;;
45694;SDS011;31408;45.468;9.124;2024-03-08T10:10:09;15.60;;;7.88;;
45694;SDS011;31408;45.468;9.124;2024-03-08T10:12:37;25.48;;;10.02;;
45694;SDS011;31408;45.468;9.124;2024-03-08T10:15:03;22.67;;;10.18;;
45694;SDS011;31408;45.468;9.124;2024-03-08T10:17:28;19.70;;;9.07;;
45694;SDS011;31408;45.468;9.124;2024-03-08T10:19:57;19.17;;;9.32;;
45694;SDS011;31408;45.468;9.124;2024-03-08T10:22:25;16.17;;;8.20;;
45694;SDS011;31408;45.468;9.124;2024-03-08T10:24:50;16.45;;;6.80;;
45694;SDS011;31408;45.468;9.124;2024-03-08T10:27:16;16.55;;;8.52;;
45694;SDS011;31408;45.468;9.124;2024-03-08T10:29:42;18.17;;;8.70;;
45694;SDS011;31408;45.468;9.124;2024-03-08T10:32:09;17.33;;;8.63;;
45694;SDS011;31408;45.468;9.124;2024-03-08T10:34:35;17.15;;;8.40;;
45694;SDS011;31408;45.468;9.124;2024-03-08T10:37:04;17.10;;;8.48;;
45694;SDS011;31408;45.468;9.124;2024-03-08T10:39:32;15.82;;;7.38;;
45694;SDS011;31408;45.468;9.124;2024-03-08T10:42:00;18.25;;;9.52;;
45694;SDS011;31408;45.468;9.124;2024-03-08T10:47:03;18.48;;;8.18;;
45694;SDS011;31408;45.468;9.124;2024-03-08T10:49:38;22.33;;;9.02;;
45694;SDS011;31408;45.468;9.124;2024-03-08T10:52:04;20.15;;;10.02;;
45694;SDS011;31408;45.468;9.124;2024-03-08T10:54:30;18.30;;;8.48;;
45694;SDS011;31408;45.468;9.124;2024-03-08T10:56:57;17.55;;;7.70;;
45694;SDS011;31408;45.468;9.124;2024-03-08T10:59:22;16.58;;;8.57;;
45694;SDS011;31408;45.468;9.124;2024-03-08T11:01:48;17.58;;;9.20;;
45694;SDS011;31408;45.468;9.124;2024-03-08T11:04:14;19.85;;;8.88;;
45694;SDS011;31408;45.468;9.124;2024-03-08T11:06:45;17.05;;;7.50;;
45694;SDS011;31408;45.468;9.124;2024-03-08T11:14:44;22.45;;;8.23;;
45694;SDS011;31408;45.468;9.124;2024-03-08T11:17:13;16.02;;;8.25;;
45694;SDS011;31408;45.468;9.124;2024-03-08T11:19:38;21.23;;;9.00;;
45694;SDS011;31408;45.468;9.124;2024-03-08T11:22:05;24.25;;;9.45;;
45694;SDS011;31408;45.468;9.124;2024-03-08T11:24:38;20.63;;;8.25;;
45694;SDS011;31408;45.468;9.124;2024-03-08T11:27:07;16.98;;;7.70;;
45694;SDS011;31408;45.468;9.124;2024-03-08T11:29:35;15.70;;;8.13;;
45694;SDS011;31408;45.468;9.124;2024-03-08T11:32:09;16.45;;;7.97;;
45694;SDS011;31408;45.468;9.124;2024-03-08T11:34:35;15.40;;;7.00;;
45694;SDS011;31408;45.468;9.124;2024-03-08T11:37:03;16.83;;;8.82;;
45694;SDS011;31408;45.468;9.124;2024-03-08T11:39:28;18.38;;;8.23;;
45694;SDS011;31408;45.468;9.124;2024-03-08T11:41:55;13.35;;;7.25;;
45694;SDS011;31408;45.468;9.124;2024-03-08T11:44:21;15.50;;;7.10;;
45694;SDS011;31408;45.468;9.124;2024-03-08T11:46:46;16.10;;;7.32;;
45694;SDS011;31408;45.468;9.124;2024-03-08T11:49:15;16.27;;;7.13;;
45694;SDS011;31408;45.468;9.124;2024-03-08T11:51:41;15.10;;;7.68;;
45694;SDS011;31408;45.468;9.124;2024-03-08T11:54:10;15.68;;;7.68;;
45694;SDS011;31408;45.468;9.124;2024-03-08T11:56:36;16.98;;;8.02;;
45694;SDS011;31408;45.468;9.124;2024-03-08T11:59:02;13.80;;;6.35;;
45694;SDS011;31408;45.468;9.124;2024-03-08T12:01:27;12.60;;;6.50;;
45694;SDS011;31408;45.468;9.124;2024-03-08T12:03:56;13.90;;;6.45;;
45694;SDS011;31408;45.468;9.124;2024-03-08T12:06:24;11.80;;;5.50;;
45694;SDS011;31408;45.468;9.124;2024-03-08T12:08:49;14.73;;;6.53;;
45694;SDS011;31408;45.468;9.124;2024-03-08T12:11:16;15.68;;;7.32;;
45694;SDS011;31408;45.468;9.124;2024-03-08T12:13:43;15.70;;;8.05;;
45694;SDS011;31408;45.468;9.124;2024-03-08T12:16:11;14.73;;;6.97;;
45694;SDS011;31408;45.468;9.124;2024-03-08T12:18:37;15.98;;;7.15;;
45694;SDS011;31408;45.468;9.124;2024-03-08T12:21:06;14.73;;;6.13;;
45694;SDS011;31408;45.468;9.124;2024-03-08T12:23:35;13.82;;;6.32;;
45694;SDS011;31408;45.468;9.124;2024-03-08T12:26:18;17.30;;;7.63;;
45694;SDS011;31408;45.468;9.124;2024-03-08T12:28:48;12.40;;;6.35;;
45694;SDS011;31408;45.468;9.124;2024-03-08T12:31:14;18.52;;;7.10;;
45694;SDS011;31408;45.468;9.124;2024-03-08T12:33:49;15.73;;;7.38;;
45694;SDS011;31408;45.468;9.124;2024-03-08T12:36:14;16.55;;;7.72;;
45694;SDS011;31408;45.468;9.124;2024-03-08T12:38:40;12.45;;;6.65;;
45694;SDS011;31408;45.468;9.124;2024-03-08T12:41:08;14.88;;;7.25;;
45694;SDS011;31408;45.468;9.124;2024-03-08T12:43:33;16.45;;;7.38;;
45694;SDS011;31408;45.468;9.124;2024-03-08T12:45:59;16.08;;;7.40;;
45694;SDS011;31408;45.468;9.124;2024-03-08T12:48:24;17.77;;;8.55;;
45694;SDS011;31408;45.468;9.124;2024-03-08T12:50:50;14.82;;;7.13;;
45694;SDS011;31408;45.468;9.124;2024-03-08T12:53:17;15.00;;;7.72;;
45694;SDS011;31408;45.468;9.124;2024-03-08T12:55:42;16.65;;;6.30;;
45694;SDS011;31408;45.468;9.124;2024-03-08T12:58:08;15.45;;;6.18;;
45694;SDS011;31408;45.468;9.124;2024-03-08T13:00:34;13.88;;;6.88;;
45694;SDS011;31408;45.468;9.124;2024-03-08T13:03:01;13.07;;;6.22;;
45694;SDS011;31408;45.468;9.124;2024-03-08T13:05:26;12.70;;;6.07;;
45694;SDS011;31408;45.468;9.124;2024-03-08T13:07:52;14.23;;;7.13;;
45694;SDS011;31408;45.468;9.124;2024-03-08T13:10:18;14.90;;;7.22;;
45694;SDS011;31408;45.468;9.124;2024-03-08T13:12:45;13.35;;;6.85;;
45694;SDS011;31408;45.468;9.124;2024-03-08T13:15:10;11.80;;;6.07;;
45694;SDS011;31408;45.468;9.124;2024-03-08T13:17:40;14.32;;;6.72;;
45694;SDS011;31408;45.468;9.124;2024-03-08T13:20:06;13.77;;;6.72;;
45694;SDS011;31408;45.468;9.124;2024-03-08T13:22:32;13.40;;;6.78;;
45694;SDS011;31408;45.468;9.124;2024-03-08T13:24:57;14.35;;;7.50;;
45694;SDS011;31408;45.468;9.124;2024-03-08T13:27:26;15.95;;;7.93;;
45694;SDS011;31408;45.468;9.124;2024-03-08T13:29:51;13.07;;;6.60;;
45694;SDS011;31408;45.468;9.124;2024-03-08T13:32:17;15.65;;;7.53;;
45694;SDS011;31408;45.468;9.124;2024-03-08T13:34:45;19.38;;;9.02;;
45694;SDS011;31408;45.468;9.124;2024-03-08T13:37:10;14.60;;;6.78;;
45694;SDS011;31408;45.468;9.124;2024-03-08T13:39:37;13.43;;;6.68;;
45694;SDS011;31408;45.468;9.124;2024-03-08T13:42:15;14.15;;;6.80;;
45694;SDS011;31408;45.468;9.124;2024-03-08T13:44:45;16.42;;;6.50;;
45694;SDS011;31408;45.468;9.124;2024-03-08T13:47:11;13.38;;;6.68;;
45694;SDS011;31408;45.468;9.124;2024-03-08T13:49:37;18.95;;;7.25;;
45694;SDS011;31408;45.468;9.124;2024-03-08T13:52:02;15.65;;;7.15;;
45694;SDS011;31408;45.468;9.124;2024-03-08T13:54:29;15.20;;;6.82;;
45694;SDS011;31408;45.468;9.124;2024-03-08T13:56:56;16.50;;;7.53;;
45694;SDS011;31408;45.468;9.124;2024-03-08T13:59:21;17.73;;;7.13;;
45694;SDS011;31408;45.468;9.124;2024-03-08T14:01:50;13.95;;;5.95;;
45694;SDS011;31408;45.468;9.124;2024-03-08T14:04:15;17.67;;;7.75;;
45694;SDS011;31408;45.468;9.124;2024-03-08T14:06:42;19.45;;;7.50;;
45694;SDS011;31408;45.468;9.124;2024-03-08T14:09:08;12.52;;;6.70;;
45694;SDS011;31408;45.468;9.124;2024-03-08T14:11:33;11.43;;;6.05;;
45694;SDS011;31408;45.468;9.124;2024-03-08T14:13:58;16.00;;;6.95;;
45694;SDS011;31408;45.468;9.124;2024-03-08T14:16:24;14.88;;;7.22;;
45694;SDS011;31408;45.468;9.124;2024-03-08T14:18:50;15.38;;;7.05;;
45694;SDS011;31408;45.468;9.124;2024-03-08T14:21:15;12.05;;;6.18;;
45694;SDS011;31408;45.468;9.124;2024-03-08T14:23:43;14.43;;;7.55;;
45694;SDS011;31408;45.468;9.124;2024-03-08T14:26:08;13.73;;;6.78;;
45694;SDS011;31408;45.468;9.124;2024-03-08T14:28:35;13.13;;;6.30;;
45694;SDS011;31408;45.468;9.124;2024-03-08T14:31:00;14.13;;;6.70;;
45694;SDS011;31408;45.468;9.124;2024-03-08T14:33:28;12.02;;;6.70;;
45694;SDS011;31408;45.468;9.124;2024-03-08T14:35:53;15.13;;;7.20;;